Vind Fra: 18-12-2018 23:00 Inntil: 19-12-2018 22:59 Advarsel for: Vind Nivå: Gul info button

METAR Rapporter

 

ENZV - Stavanger
Oppdatert: 19/12/2018 16:50
hovedsaklig skyet
hovedsaklig skyet
 Vind fra SØ
Vind: SØ 31 km/h
Temperatur: 6°C
Vindkjøling: 1°C
Duggpunkt: 0°C
Fuktighet: 66%
Barometer: 1005 hPa
Skyet: hovedsaklig skyet
Sikt: 10 km
Cloud details: Few Clouds 914 m
delvis skyet 1280 m
hovedsaklig skyet 1981 m
2018/12/19 15:50 ENZV 191550Z 13017KT 9999 FEW030 SCT042 BKN065 06/00 Q1005 NOSIG
ENBR - Bergen
Oppdatert: 19/12/2018 16:50
hovedsaklig skyet
hovedsaklig skyet
 Vind fra SØ
Vind: SØ 22 km/h
Temperatur: 8°C
Vindkjøling: 4°C
Duggpunkt: -4°C
Fuktighet: 43%
Barometer: 1005 hPa
Skyet: hovedsaklig skyet
Sikt: 10 km
Cloud details: Few Clouds 1372 m
hovedsaklig skyet 1768 m
2018/12/19 15:50 ENBR 191550Z 14012KT 9999 FEW045 BKN058 08/M04 Q1005 NOSIG RMK WIND 1200FT 13020KT
 
ENHD - Haugesund
Oppdatert: 19/12/2018 16:50
duskregn, overskyet
duskregn, overskyet
 Vind fra SSØ
Vind: SSØ 24 km/h
Temperatur: 5°C
Vindkjøling: 1°C
Duggpunkt: 2°C
Fuktighet: 81%
Barometer: 1005 hPa
Oversikt: duskregn
Skyet: overskyet
Sikt: 10 km
Cloud details: overskyet 427 m
2018/12/19 15:50 ENHD 191550Z 15013KT 9999 DZ VV014 05/02 Q1005
ENCN - Kristiansand
Oppdatert: 19/12/2018 16:50
lett regn, hovedsaklig skyet
lett regn, hovedsaklig skyet
 Vind fra ØSØ
Vind: ØSØ 13 km/h
Temperatur: 4°C
Vindkjøling: 1°C
Duggpunkt: 2°C
Fuktighet: 87%
Barometer: 1010 hPa
Oversikt: lett regn
Skyet: hovedsaklig skyet
Sikt: 10 km
Cloud details: hovedsaklig skyet 518 m
2018/12/19 15:50 ENCN 191550Z 11007KT 080V150 9999 -RA BKN017 04/02 Q1010
 
ENBO - Bodø
Oppdatert: 19/12/2018 16:50
Few Clouds
Few Clouds
 Vind fra Ø
Vind: Ø 39 km/h
Temperatur: 1°C
Vindkjøling: -6°C
Duggpunkt: -7°C
Fuktighet: 56%
Barometer: 1018 hPa
Skyet: Few Clouds
Sikt: 10 km
Cloud details: Few Clouds 1524 m
2018/12/19 15:50 ENBO 191550Z 10021KT 9999 FEW050 01/M07 Q1018 TEMPO 12025G35KT
ENKR - Kirkenes
Oppdatert: 19/12/2018 16:50
klart
klart
 Vind fra SSV
Vind: SSV 26 km/h
Temperatur: -7°C
Vindkjøling: -16°C
Duggpunkt: -10°C
Fuktighet: 79%
Barometer: 1029 hPa
Oversikt: klart
Sikt: greater than 10 km
2018/12/19 15:50 ENKR 191550Z 21014KT CAVOK M07/M10 Q1029 RMK WIND 731FT 22021KT
 
ENVA - Trondheim
Oppdatert: 19/12/2018 16:50
klart
klart
 Vind fra ØSØ
Vind: ØSØ 17 km/h
Temperatur: 4°C
Vindkjøling: 0°C
Duggpunkt: -4°C
Fuktighet: 56%
Barometer: 1013 hPa
Oversikt: klart
Sikt: greater than 10 km
2018/12/19 15:50 ENVA 191550Z 12009KT 090V150 CAVOK 04/M04 Q1013 TEMPO 16018G30KT RMK WIND 670FT 15017G27KT
ENGM - Oslo
Oppdatert: 19/12/2018 16:50
overskyet
overskyet
 Vind fra ØSØ
Vind: ØSØ 9 km/h
Temperatur: -1°C
Vindkjøling: -4°C
Duggpunkt: -1°C
Fuktighet: 100%
Barometer: 1016 hPa
Skyet: overskyet
Sikt: 9 km
Cloud details: overskyet 91 m
2018/12/19 15:50 ENGM 191550Z 12005KT 070V150 9000 OVC003 M01/M01 Q1016 NOSIG